RMQ weather

Taichung Ching Chuang Kang Airport
Taichung City, Taichung (city), Taiwan

Public forecast

Using degrees Celsius for public forecast. Weather courtesy of forecast.io.

METAR (pilot weather report)

Retrieved 2019/04/23 16:00 UTC (10 minutes ago):

RCMQ 231600Z 18010KT 9999 FEW010 SCT060 25/23 Q1010 RMK A2983

TAF (pilot weather forecast)

Retrieved 2019/04/23 12:00 UTC (4 hours ago):

TAF RCMQ 231100Z 2312/2412 24012KT 9999 FEW010 TX32/2306Z TN24/2321Z BECMG 2315/2318 20004KT 8000 FEW010 BKN050 BECMG 2320/2323 23012KT FEW010 SCT050 BECMG 2400/2403 24015KT 9999